Time;durP1;ratioP1;P1;durP2;ratioP2;P2;SDS_P1;SDS_P2;PMS_P1;PMS_P2;Temp;Humidity;BMP_temperature;BMP_pressure;BME280_temperature;BME280_humidity;BME280_pressure;Samples;Min_cycle;Max_cycle;Signal;HPM_P1;HPM_P2
2021/11/02 00:02:14;;;;;;;0.00;0.00;;;7.60;99.90;;;;;;5094044;28;20042;-69
2021/11/02 00:04:40;;;;;;;0.43;0.43;;;7.70;99.90;;;;;;5093622;28;20046;-69
2021/11/02 00:07:06;;;;;;;0.00;0.00;;;7.60;99.90;;;;;;5094280;28;20398;-69
2021/11/02 00:09:35;;;;;;;0.00;0.00;;;7.70;99.90;;;;;;5092964;28;20028;-69
2021/11/02 00:12:02;;;;;;;0.00;0.00;;;7.70;99.90;;;;;;5092752;28;20400;-69
2021/11/02 00:14:29;;;;;;;0.28;0.28;;;7.70;99.90;;;;;;5092822;28;20028;-69
2021/11/02 00:19:58;;;;;;;0.70;0.70;;;7.70;99.90;;;;;;5092289;28;20412;-69
2021/11/02 00:22:26;;;;;;;2.38;0.63;;;7.70;99.90;;;;;;5093248;28;20036;-69
2021/11/02 00:27:23;;;;;;;0.10;0.10;;;7.80;99.90;;;;;;5093615;28;20481;-69
2021/11/02 00:29:52;;;;;;;0.05;0.05;;;7.80;99.90;;;;;;5092706;28;20036;-69
2021/11/02 00:32:18;;;;;;;0.30;0.30;;;7.90;99.90;;;;;;5093538;28;20068;-69
2021/11/02 00:34:44;;;;;;;0.70;0.70;;;7.90;99.90;;;;;;5094029;28;20121;-69
2021/11/02 00:37:10;;;;;;;0.00;0.00;;;7.90;99.90;;;;;;5092497;28;20506;-69
2021/11/02 00:39:36;;;;;;;0.60;0.40;;;7.90;99.90;;;;;;5093249;28;20050;-69
2021/11/02 00:42:01;;;;;;;0.20;0.20;;;7.90;99.90;;;;;;5093301;28;20038;-69
2021/11/02 00:44:27;;;;;;;1.08;0.98;;;7.90;99.90;;;;;;5093620;28;20036;-69
2021/11/02 00:46:56;;;;;;;0.40;0.40;;;7.90;99.90;;;;;;5093124;28;20032;-69
2021/11/02 00:49:24;;;;;;;0.00;0.00;;;7.80;99.90;;;;;;5093219;28;20127;-69
2021/11/02 00:51:51;;;;;;;0.13;0.13;;;7.80;99.90;;;;;;5091945;28;20392;-69
2021/11/02 00:54:17;;;;;;;0.00;0.00;;;7.80;99.90;;;;;;5093539;28;20039;-69
2021/11/02 00:56:44;;;;;;;0.38;0.38;;;7.70;99.90;;;;;;5108988;28;20534;-69
2021/11/02 00:59:10;;;;;;;0.10;0.10;;;7.70;99.90;;;;;;5093607;28;20036;-69
2021/11/02 01:01:40;;;;;;;0.25;0.25;;;7.70;99.90;;;;;;5091448;28;20496;-69
2021/11/02 01:04:07;;;;;;;0.25;0.25;;;7.60;99.90;;;;;;5091859;28;20119;-69
2021/11/02 01:06:37;;;;;;;0.00;0.00;;;7.60;99.90;;;;;;5091899;28;20023;-69
2021/11/02 01:09:05;;;;;;;0.00;0.00;;;7.60;99.90;;;;;;5092128;28;20024;-69
2021/11/02 01:11:32;;;;;;;0.30;0.30;;;7.60;99.90;;;;;;5093086;28;20067;-69
2021/11/02 01:13:58;;;;;;;0.03;0.03;;;7.50;99.90;;;;;;5091525;28;20028;-69
2021/11/02 01:16:27;;;;;;;0.05;0.05;;;7.60;99.90;;;;;;5092133;28;20086;-69
2021/11/02 01:18:54;;;;;;;0.22;0.22;;;7.50;99.90;;;;;;5092676;28;20054;-69
2021/11/02 01:21:22;;;;;;;0.38;0.38;;;7.50;99.90;;;;;;5092476;28;20437;-69
2021/11/02 01:23:50;;;;;;;0.20;0.20;;;7.60;99.90;;;;;;5092722;28;20115;-69
2021/11/02 01:26:18;;;;;;;0.38;0.38;;;7.70;99.90;;;;;;5092767;28;20060;-69
2021/11/02 01:28:44;;;;;;;0.20;0.20;;;7.60;99.90;;;;;;5091327;28;20031;-69
2021/11/02 01:31:10;;;;;;;0.22;0.22;;;7.50;99.90;;;;;;5091304;28;20024;-69
2021/11/02 01:33:36;;;;;;;0.15;0.15;;;7.60;99.90;;;;;;5091498;28;20028;-69
2021/11/02 01:36:03;;;;;;;0.10;0.10;;;7.50;99.90;;;;;;5091427;28;20171;-69
2021/11/02 01:38:28;;;;;;;0.10;0.10;;;7.50;99.90;;;;;;5091216;28;20043;-69
2021/11/02 01:40:55;;;;;;;0.00;0.00;;;7.50;99.90;;;;;;5092668;28;20487;-69
2021/11/02 01:43:22;;;;;;;0.00;0.00;;;7.50;99.90;;;;;;5074361;28;20028;-69
2021/11/02 01:45:49;;;;;;;0.98;0.73;;;7.50;99.90;;;;;;5092331;28;20031;-69
2021/11/02 01:48:23;;;;;;;0.43;0.43;;;7.40;99.90;;;;;;5092441;28;20051;-69
2021/11/02 01:50:50;;;;;;;1.10;0.40;;;7.40;99.90;;;;;;5091171;28;20217;-69
2021/11/02 01:53:16;;;;;;;3.10;1.48;;;7.30;99.90;;;;;;5090973;28;20024;-69
2021/11/02 01:55:43;;;;;;;0.15;0.15;;;7.30;99.90;;;;;;5092410;28;20067;-69
2021/11/02 01:58:11;;;;;;;0.43;0.43;;;7.20;99.90;;;;;;5092313;28;20039;-69
2021/11/02 02:00:39;;;;;;;0.03;0.03;;;7.20;99.90;;;;;;5091263;28;20031;-69
2021/11/02 02:03:39;;;;;;;0.73;0.73;;;7.20;99.90;;;;;;5090997;28;20489;-69
2021/11/02 02:06:44;;;;;;;3.33;1.08;;;7.20;99.90;;;;;;5091026;28;20036;-70
2021/11/02 02:09:53;;;;;;;0.00;0.00;;;7.20;99.90;;;;;;5091044;28;20028;-70
2021/11/02 02:12:36;;;;;;;0.00;0.00;;;7.20;99.90;;;;;;5087415;28;20431;-70
2021/11/02 02:15:37;;;;;;;0.10;0.10;;;7.20;99.90;;;;;;5090829;28;20477;-69
2021/11/02 02:18:31;;;;;;;0.10;0.10;;;7.10;99.90;;;;;;5091177;28;20032;-69
2021/11/02 02:21:18;;;;;;;0.00;0.00;;;7.20;99.90;;;;;;5088206;28;20066;-69
2021/11/02 02:24:27;;;;;;;0.63;0.63;;;7.20;99.90;;;;;;5090584;28;20435;-69
2021/11/02 02:27:36;;;;;;;0.00;0.00;;;7.20;99.90;;;;;;5091928;28;20032;-69
2021/11/02 02:30:11;;;;;;;0.00;0.00;;;7.20;99.90;;;;;;5095881;28;20089;-69
2021/11/02 02:32:50;;;;;;;0.30;0.30;;;7.30;99.90;;;;;;5094960;28;20035;-69
2021/11/02 02:35:22;;;;;;;0.25;0.25;;;7.30;99.90;;;;;;5094830;28;20043;-69
2021/11/02 02:37:49;;;;;;;1.25;1.17;;;7.30;99.90;;;;;;5094545;28;20077;-69
2021/11/02 02:40:16;;;;;;;0.10;0.10;;;7.30;99.90;;;;;;5094622;28;20024;-69
2021/11/02 02:42:45;;;;;;;0.00;0.00;;;7.30;99.90;;;;;;5094483;28;20085;-69
2021/11/02 02:45:15;;;;;;;0.00;0.00;;;7.30;99.90;;;;;;5095957;28;20024;-69
2021/11/02 02:47:45;;;;;;;0.00;0.00;;;7.40;99.90;;;;;;5094605;28;20031;-69
2021/11/02 02:50:11;;;;;;;0.00;0.00;;;7.50;99.90;;;;;;5094363;28;20442;-69
2021/11/02 02:52:40;;;;;;;2.53;0.90;;;7.60;99.90;;;;;;5094258;28;20123;-69
2021/11/02 02:55:08;;;;;;;0.00;0.00;;;7.60;99.90;;;;;;5094498;28;20093;-69
2021/11/02 02:57:35;;;;;;;0.40;0.40;;;7.70;99.90;;;;;;5094318;28;20081;-69
2021/11/02 03:00:04;;;;;;;0.00;0.00;;;7.70;99.90;;;;;;5094088;28;20028;-69
2021/11/02 03:02:32;;;;;;;0.98;0.65;;;7.70;99.90;;;;;;5094121;28;20161;-69
2021/11/02 03:05:01;;;;;;;0.10;0.10;;;7.80;99.90;;;;;;5094033;28;20562;-69
2021/11/02 03:07:27;;;;;;;0.00;0.00;;;7.70;99.90;;;;;;5094103;28;20040;-69
2021/11/02 03:09:53;;;;;;;0.10;0.10;;;7.70;99.90;;;;;;5093849;28;20165;-69
2021/11/02 03:12:45;;;;;;;0.05;0.05;;;7.60;99.90;;;;;;5093981;28;20505;-69
2021/11/02 03:18:19;;;;;;;0.00;0.00;;;7.70;99.90;;;;;;5093689;28;20035;-68
2021/11/02 03:48:46;;;;;;;0.15;0.15;;;7.90;99.90;;;;;;5093783;28;20039;-69
2021/11/02 03:51:30;;;;;;;0.10;0.10;;;7.90;99.90;;;;;;5093281;28;20032;-69
2021/11/02 04:00:13;;;;;;;0.00;0.00;;;8.00;99.90;;;;;;5094454;28;20381;-69
2021/11/02 05:14:17;;;;;;;0.00;0.00;;;7.50;99.90;;;;;;5080114;28;20492;-68
2021/11/02 05:49:48;;;;;;;0.68;0.68;;;7.10;99.90;;;;;;5092506;28;20028;-69
2021/11/02 05:52:48;;;;;;;0.00;0.00;;;7.10;99.90;;;;;;5092082;28;20028;-69
2021/11/02 06:00:16;;;;;;;0.00;0.00;;;7.00;99.90;;;;;;5092311;28;20487;-70
2021/11/02 06:29:38;;;;;;;0.20;0.20;;;6.60;99.90;;;;;;5094923;28;20492;-68
2021/11/02 06:32:31;;;;;;;0.00;0.00;;;6.60;99.90;;;;;;5091152;28;20039;-68
2021/11/02 06:35:07;;;;;;;0.55;0.45;;;6.60;99.90;;;;;;5087983;28;20041;-69
2021/11/02 07:22:47;;;;;;;0.10;0.10;;;6.90;99.90;;;;;;5086962;28;20028;-69
2021/11/02 08:47:46;;;;;;;0.43;0.43;;;8.70;99.90;;;;;;5092623;28;20517;-69
2021/11/02 08:50:36;;;;;;;0.05;0.05;;;8.80;99.90;;;;;;5093647;28;20030;-69
2021/11/02 08:53:24;;;;;;;0.00;0.00;;;9.00;99.90;;;;;;5092454;28;20059;-70
2021/11/02 08:56:09;;;;;;;0.00;0.00;;;9.00;99.90;;;;;;5091865;28;20047;-69
2021/11/02 08:58:58;;;;;;;23.20;1.17;;;9.10;99.90;;;;;;5093292;28;20119;-69
2021/11/02 09:01:47;;;;;;;0.40;0.40;;;9.30;99.90;;;;;;5078025;28;20035;-68
2021/11/02 09:04:45;;;;;;;1.00;0.75;;;9.20;99.90;;;;;;5092105;28;20070;-71
2021/11/02 09:07:31;;;;;;;0.68;0.68;;;9.30;99.90;;;;;;5092245;28;20043;-71
2021/11/02 09:10:22;;;;;;;1.10;1.00;;;9.20;99.90;;;;;;5077607;28;20035;-71
2021/11/02 09:13:12;;;;;;;1.00;0.43;;;9.20;99.90;;;;;;5091699;28;20405;-71
2021/11/02 09:16:01;;;;;;;0.22;0.22;;;9.20;99.90;;;;;;5092131;28;20097;-71
2021/11/02 09:18:50;;;;;;;0.35;0.35;;;9.20;99.90;;;;;;5091832;28;20046;-71
2021/11/02 09:21:35;;;;;;;0.03;0.03;;;9.20;99.90;;;;;;5092934;28;20054;-71
2021/11/02 09:24:20;;;;;;;0.00;0.00;;;9.20;99.90;;;;;;5092868;28;20123;-71
2021/11/02 09:27:06;;;;;;;0.25;0.25;;;9.20;99.90;;;;;;5091717;28;20097;-71
2021/11/02 09:29:51;;;;;;;0.10;0.10;;;9.30;99.90;;;;;;5091922;28;20164;-71
2021/11/02 09:32:37;;;;;;;0.00;0.00;;;9.30;99.90;;;;;;5092743;28;20059;-71
2021/11/02 09:35:27;;;;;;;0.20;0.20;;;9.40;99.90;;;;;;5091670;28;20097;-71
2021/11/02 09:38:30;;;;;;;0.68;0.68;;;9.40;99.90;;;;;;5091146;28;20111;-71
2021/11/02 09:41:58;;;;;;;0.30;0.30;;;9.40;99.90;;;;;;5091693;28;20083;-71
2021/11/02 09:45:00;;;;;;;0.00;0.00;;;9.40;99.90;;;;;;5092550;28;20504;-71
2021/11/02 09:48:20;;;;;;;0.55;0.55;;;9.40;99.90;;;;;;5092693;28;20109;-71
2021/11/02 09:51:38;;;;;;;0.45;0.45;;;9.40;99.90;;;;;;5091482;28;20081;-71
2021/11/02 09:54:50;;;;;;;0.15;0.15;;;9.40;99.90;;;;;;5092564;28;20054;-71
2021/11/02 09:58:30;;;;;;;0.30;0.30;;;9.30;99.90;;;;;;5091162;28;20384;-71
2021/11/02 10:02:03;;;;;;;0.00;0.00;;;9.30;99.90;;;;;;5099205;28;20090;-71
2021/11/02 10:05:07;;;;;;;0.22;0.22;;;9.30;99.90;;;;;;5093479;28;20043;-70
2021/11/02 10:08:36;;;;;;;0.30;0.30;;;9.30;99.90;;;;;;5078794;28;20169;-71
2021/11/02 10:11:56;;;;;;;0.00;0.00;;;9.20;99.90;;;;;;5094080;28;20539;-71
2021/11/02 10:15:01;;;;;;;0.05;0.05;;;9.20;99.90;;;;;;5092724;28;20146;-70
2021/11/02 10:18:12;;;;;;;28.05;1.45;;;9.20;99.90;;;;;;5093823;28;20086;-71
2021/11/02 10:21:51;;;;;;;1.02;0.80;;;9.20;99.90;;;;;;5092791;28;20507;-71
2021/11/02 10:25:03;;;;;;;0.00;0.00;;;9.20;99.90;;;;;;5091154;28;20055;-70
2021/11/02 10:28:31;;;;;;;0.00;0.00;;;9.20;99.90;;;;;;5092509;28;20051;-71
2021/11/02 10:31:36;;;;;;;0.00;0.00;;;9.20;99.90;;;;;;5093355;28;20043;-71
2021/11/02 10:34:34;;;;;;;0.40;0.40;;;9.10;99.90;;;;;;5092198;28;20448;-71
2021/11/02 10:37:40;;;;;;;0.40;0.40;;;9.10;99.90;;;;;;5092869;28;20055;-72
2021/11/02 10:40:39;;;;;;;0.08;0.08;;;9.10;99.90;;;;;;5091033;28;20043;-72
2021/11/02 10:43:50;;;;;;;0.10;0.10;;;9.00;99.90;;;;;;5091616;28;20116;-72
2021/11/02 10:46:37;;;;;;;0.47;0.47;;;9.00;99.90;;;;;;5091073;28;20093;-72
2021/11/02 10:49:57;;;;;;;0.47;0.47;;;9.00;99.90;;;;;;5095313;28;20031;-72
2021/11/02 10:52:41;;;;;;;0.20;0.20;;;9.00;99.90;;;;;;5084661;28;20039;-72
2021/11/02 10:56:02;;;;;;;0.00;0.00;;;9.00;99.90;;;;;;5080180;28;20047;-72
2021/11/02 10:58:53;;;;;;;0.10;0.10;;;9.00;99.90;;;;;;5095586;28;20043;-73
2021/11/02 11:01:41;;;;;;;0.00;0.00;;;9.00;99.90;;;;;;5094186;28;20503;-73
2021/11/02 11:04:33;;;;;;;0.57;0.57;;;9.00;99.90;;;;;;5094699;28;20499;-73
2021/11/02 11:07:19;;;;;;;10.52;1.20;;;9.00;99.90;;;;;;5094748;28;20570;-73
2021/11/02 11:10:10;;;;;;;0.00;0.00;;;9.00;99.90;;;;;;5095399;28;20094;-75
2021/11/02 11:12:59;;;;;;;1.15;0.65;;;9.00;99.90;;;;;;5080365;28;20071;-73
2021/11/02 11:15:45;;;;;;;5.40;0.73;;;9.10;99.90;;;;;;5094349;28;20515;-71
2021/11/02 11:19:06;;;;;;;0.00;0.00;;;9.10;99.90;;;;;;5093990;28;20043;-71
2021/11/02 11:21:51;;;;;;;0.00;0.00;;;9.00;99.90;;;;;;5074855;28;20047;-65
2021/11/02 11:24:55;;;;;;;0.00;0.00;;;9.10;99.90;;;;;;5074885;28;20067;-72
2021/11/02 11:27:55;;;;;;;0.00;0.00;;;9.10;99.90;;;;;;5074149;28;20090;-72
2021/11/02 11:30:43;;;;;;;0.03;0.03;;;9.10;99.90;;;;;;5074675;28;20035;-72
2021/11/02 11:33:31;;;;;;;1.85;0.30;;;9.10;99.90;;;;;;5073767;28;20043;-71
2021/11/02 11:36:17;;;;;;;0.13;0.13;;;9.10;99.90;;;;;;5074594;28;20093;-71
2021/11/02 11:39:05;;;;;;;0.15;0.15;;;9.10;99.90;;;;;;5074811;28;20105;-69
2021/11/02 11:41:52;;;;;;;0.00;0.00;;;9.10;99.90;;;;;;5074500;28;20124;-72
2021/11/02 11:44:42;;;;;;;0.20;0.20;;;9.10;99.90;;;;;;5073643;28;20094;-72
2021/11/02 11:47:26;;;;;;;0.00;0.00;;;9.20;99.90;;;;;;5073434;28;20039;-71
2021/11/02 11:50:19;;;;;;;0.10;0.10;;;9.30;99.90;;;;;;5074286;28;20036;-71
2021/11/02 11:53:04;;;;;;;0.15;0.15;;;9.20;99.90;;;;;;5074564;28;20035;-71
2021/11/02 11:56:01;;;;;;;0.00;0.00;;;9.20;99.90;;;;;;5074216;28;20120;-75
2021/11/02 11:58:54;;;;;;;0.00;0.00;;;9.30;99.90;;;;;;5073905;28;20404;-72
2021/11/02 12:02:10;;;;;;;0.28;0.28;;;9.30;99.90;;;;;;5087340;28;20040;-71
2021/11/02 12:05:02;;;;;;;0.00;0.00;;;9.30;99.90;;;;;;5074199;28;20075;-71
2021/11/02 12:08:15;;;;;;;0.00;0.00;;;9.30;99.90;;;;;;5073065;28;20086;-71
2021/11/02 12:11:02;;;;;;;0.00;0.00;;;9.20;99.90;;;;;;5073142;28;20031;-71
2021/11/02 12:13:55;;;;;;;0.20;0.20;;;9.30;99.90;;;;;;5073268;28;20550;-72
2021/11/02 12:16:43;;;;;;;0.00;0.00;;;9.20;99.90;;;;;;5072934;28;20047;-72
2021/11/02 12:19:34;;;;;;;0.15;0.15;;;9.20;99.90;;;;;;5072392;28;20086;-72
2021/11/02 12:22:31;;;;;;;0.00;0.00;;;9.20;99.90;;;;;;5072878;28;20116;-72
2021/11/02 12:25:28;;;;;;;0.00;0.00;;;9.20;99.90;;;;;;5072774;28;20121;-72
2021/11/02 12:28:43;;;;;;;0.00;0.00;;;9.20;99.90;;;;;;5073498;28;20531;-72
2021/11/02 12:31:27;;;;;;;0.00;0.00;;;9.20;99.90;;;;;;5072415;28;20094;-73
2021/11/02 12:34:15;;;;;;;1.45;1.00;;;9.30;99.90;;;;;;5073185;28;20189;-72
2021/11/02 12:37:05;;;;;;;0.00;0.00;;;9.20;99.90;;;;;;5072602;28;20117;-72
2021/11/02 12:39:50;;;;;;;0.00;0.00;;;9.20;99.90;;;;;;5072475;28;20040;-72
2021/11/02 12:42:36;;;;;;;0.00;0.00;;;9.20;99.90;;;;;;5072346;28;20047;-73
2021/11/02 12:45:26;;;;;;;0.00;0.00;;;9.20;99.90;;;;;;5072399;28;20435;-73
2021/11/02 12:48:13;;;;;;;0.00;0.00;;;9.20;99.90;;;;;;5073389;28;20039;-72
2021/11/02 12:50:59;;;;;;;0.00;0.00;;;9.20;99.90;;;;;;5072493;28;20044;-72
2021/11/02 12:53:47;;;;;;;0.10;0.10;;;9.20;99.90;;;;;;5085266;28;20039;-72
2021/11/02 12:56:34;;;;;;;0.00;0.00;;;9.20;99.90;;;;;;5092358;28;20541;-72
2021/11/02 12:59:25;;;;;;;0.00;0.00;;;9.20;99.90;;;;;;5092297;28;20038;-72
2021/11/02 13:02:38;;;;;;;0.00;0.00;;;9.20;99.90;;;;;;5093604;28;20072;-72
2021/11/02 13:05:25;;;;;;;0.00;0.00;;;9.10;99.90;;;;;;5092161;28;20047;-73
2021/11/02 13:08:15;;;;;;;0.00;0.00;;;9.20;99.90;;;;;;5092132;28;20507;-72
2021/11/02 13:11:10;;;;;;;0.00;0.00;;;9.20;99.90;;;;;;5078772;28;20117;-73
2021/11/02 13:14:14;;;;;;;0.00;0.00;;;9.20;99.90;;;;;;5078041;28;20081;-73
2021/11/02 13:17:01;;;;;;;0.00;0.00;;;9.20;99.90;;;;;;5093003;28;20035;-73
2021/11/02 13:19:51;;;;;;;0.00;0.00;;;9.20;99.90;;;;;;5092807;28;20059;-73
2021/11/02 13:22:35;;;;;;;0.08;0.08;;;9.20;99.90;;;;;;5091440;28;20123;-72
2021/11/02 13:25:24;;;;;;;1.27;0.60;;;9.30;99.90;;;;;;5091577;28;20089;-73
2021/11/02 13:28:09;;;;;;;0.03;0.03;;;9.40;99.90;;;;;;5091790;28;20479;-73
2021/11/02 13:30:54;;;;;;;0.00;0.00;;;9.50;99.90;;;;;;5092761;28;20506;-72
2021/11/02 13:33:39;;;;;;;0.00;0.00;;;9.50;99.90;;;;;;5091706;28;20149;-72
2021/11/02 13:36:23;;;;;;;0.00;0.00;;;9.60;99.90;;;;;;5091625;28;20039;-71
2021/11/02 13:39:17;;;;;;;0.00;0.00;;;9.60;99.90;;;;;;5092878;28;20054;-71
2021/11/02 13:42:01;;;;;;;0.00;0.00;;;9.60;99.90;;;;;;5091577;28;20039;-71
2021/11/02 13:44:49;;;;;;;0.00;0.00;;;9.70;99.90;;;;;;5092331;28;20560;-71
2021/11/02 13:47:34;;;;;;;0.00;0.00;;;9.90;99.90;;;;;;5077484;28;20058;-72
2021/11/02 13:50:19;;;;;;;0.00;0.00;;;10.10;99.90;;;;;;5092276;28;20046;-72
2021/11/02 13:53:04;;;;;;;0.35;0.35;;;10.30;99.90;;;;;;5091468;28;20043;-72
2021/11/02 13:55:52;;;;;;;0.00;0.00;;;10.50;99.90;;;;;;5092371;28;20039;-72
2021/11/02 13:58:38;;;;;;;0.00;0.00;;;10.70;99.90;;;;;;5091379;28;20101;-72
2021/11/02 14:01:26;;;;;;;0.00;0.00;;;10.60;99.90;;;;;;5091397;28;20134;-72
2021/11/02 14:04:36;;;;;;;0.00;0.00;;;10.60;99.90;;;;;;5091862;28;20148;-72
2021/11/02 14:07:34;;;;;;;0.00;0.00;;;10.50;99.90;;;;;;5091249;28;20038;-72
2021/11/02 14:10:19;;;;;;;0.43;0.43;;;10.40;99.90;;;;;;5076994;28;20388;-71
2021/11/02 14:13:04;;;;;;;0.10;0.10;;;10.30;99.90;;;;;;5092240;28;20643;-71
2021/11/02 14:15:48;;;;;;;0.00;0.00;;;10.20;99.90;;;;;;5091300;28;20438;-72
2021/11/02 14:18:35;;;;;;;0.00;0.00;;;10.30;99.90;;;;;;5091164;28;20456;-72
2021/11/02 14:21:48;;;;;;;0.00;0.00;;;10.30;99.90;;;;;;5076578;28;20051;-71
2021/11/02 14:24:35;;;;;;;1.80;1.67;;;10.30;99.90;;;;;;5081195;28;20043;-71
2021/11/02 14:27:21;;;;;;;0.00;0.00;;;10.30;99.90;;;;;;5095839;28;20039;-72
2021/11/02 14:30:07;;;;;;;1.15;0.85;;;10.30;99.90;;;;;;5096046;28;20553;-71
2021/11/02 14:32:52;;;;;;;0.00;0.00;;;10.40;99.90;;;;;;5096192;28;20058;-72
2021/11/02 14:35:49;;;;;;;0.00;0.00;;;10.40;99.90;;;;;;5095322;28;20046;-72
2021/11/02 14:38:46;;;;;;;0.00;0.00;;;10.50;99.90;;;;;;5095847;28;20170;-72
2021/11/02 14:41:33;;;;;;;0.00;0.00;;;10.50;99.90;;;;;;5094696;28;20393;-72
2021/11/02 14:44:27;;;;;;;0.00;0.00;;;10.40;99.90;;;;;;5095228;28;20507;-72
2021/11/02 14:47:35;;;;;;;0.00;0.00;;;10.30;99.90;;;;;;5095816;28;20085;-72
2021/11/02 14:50:36;;;;;;;0.00;0.00;;;10.20;99.90;;;;;;5094677;28;20185;-72
2021/11/02 14:53:27;;;;;;;0.00;0.00;;;10.20;99.90;;;;;;5088363;28;20307;-72
2021/11/02 14:56:31;;;;;;;0.00;0.00;;;10.00;99.90;;;;;;5074620;28;20451;-72
2021/11/02 14:59:20;;;;;;;0.00;0.00;;;10.10;99.90;;;;;;5088484;28;20124;-72
2021/11/02 15:02:07;;;;;;;0.00;0.00;;;10.10;99.90;;;;;;5088518;28;20042;-71
2021/11/02 15:04:53;;;;;;;0.00;0.00;;;10.10;99.90;;;;;;5075300;28;20089;-71
2021/11/02 15:07:43;;;;;;;0.00;0.00;;;10.10;99.90;;;;;;5088202;28;20538;-72
2021/11/02 15:10:27;;;;;;;0.00;0.00;;;10.10;99.90;;;;;;5088330;28;20059;-71
2021/11/02 15:13:12;;;;;;;0.00;0.00;;;10.10;99.90;;;;;;5088238;28;20037;-71
2021/11/02 15:16:00;;;;;;;0.00;0.00;;;10.10;99.90;;;;;;5075212;28;20123;-71
2021/11/02 15:18:47;;;;;;;0.00;0.00;;;10.00;99.90;;;;;;5087607;28;20547;-72
2021/11/02 15:21:39;;;;;;;0.00;0.00;;;10.00;99.90;;;;;;5087784;28;20409;-72
2021/11/02 15:24:28;;;;;;;0.10;0.10;;;9.90;99.90;;;;;;5093557;28;20039;-72
2021/11/02 15:27:22;;;;;;;0.00;0.00;;;9.90;99.90;;;;;;5080325;28;20126;-72
2021/11/02 15:30:14;;;;;;;0.00;0.00;;;9.80;99.90;;;;;;5095177;28;20557;-72
2021/11/02 15:32:58;;;;;;;0.00;0.00;;;9.80;99.90;;;;;;5093783;28;20050;-72
2021/11/02 15:35:43;;;;;;;0.00;0.00;;;9.80;99.90;;;;;;5092221;28;20172;-72
2021/11/02 15:38:28;;;;;;;0.00;0.00;;;9.70;99.90;;;;;;5094684;28;20136;-72
2021/11/02 15:41:22;;;;;;;0.10;0.10;;;9.70;99.90;;;;;;5094795;28;20438;-71
2021/11/02 15:44:09;;;;;;;1.95;1.30;;;9.70;99.90;;;;;;5093451;28;20093;-71
2021/11/02 15:46:54;;;;;;;0.57;0.57;;;9.70;99.90;;;;;;5093896;28;20047;-71
2021/11/02 15:49:39;;;;;;;0.52;0.52;;;9.70;99.90;;;;;;5093594;28;20085;-70
2021/11/02 15:52:27;;;;;;;0.17;0.17;;;9.60;99.90;;;;;;5094679;28;20538;-72
2021/11/02 15:55:21;;;;;;;0.00;0.00;;;9.60;99.90;;;;;;5094625;28;20047;-72
2021/11/02 15:58:08;;;;;;;0.00;0.00;;;9.60;99.90;;;;;;5093541;28;20404;-73
2021/11/02 16:00:53;;;;;;;0.00;0.00;;;9.50;99.90;;;;;;5094513;28;20127;-73
2021/11/02 16:03:39;;;;;;;0.00;0.00;;;9.40;99.90;;;;;;5093889;28;20074;-71
2021/11/02 16:06:23;;;;;;;0.00;0.00;;;9.40;99.90;;;;;;5093370;28;20035;-72
2021/11/02 16:09:07;;;;;;;3.83;1.45;;;9.40;99.90;;;;;;5093310;28;20490;-72
2021/11/02 16:11:52;;;;;;;0.00;0.00;;;9.30;99.90;;;;;;5093435;28;20038;-72
2021/11/02 16:14:37;;;;;;;0.00;0.00;;;9.30;99.90;;;;;;5092954;28;20039;-72
2021/11/02 16:17:23;;;;;;;0.00;0.00;;;9.30;99.90;;;;;;5092768;28;20039;-72
2021/11/02 16:20:21;;;;;;;0.00;0.00;;;9.30;99.90;;;;;;5092705;28;20472;-72
2021/11/02 16:23:12;;;;;;;3.97;0.52;;;9.30;99.90;;;;;;5093066;28;20050;-72
2021/11/02 16:26:09;;;;;;;0.00;0.00;;;9.30;99.90;;;;;;5092838;28;20035;-72
2021/11/02 16:28:58;;;;;;;0.90;0.73;;;9.20;99.90;;;;;;5093287;28;20066;-72
2021/11/02 16:31:46;;;;;;;0.13;0.13;;;9.20;99.90;;;;;;5107107;28;20316;-72
2021/11/02 16:34:30;;;;;;;0.20;0.20;;;9.20;99.90;;;;;;5093623;28;20043;-73
2021/11/02 16:37:43;;;;;;;0.00;0.00;;;9.10;99.90;;;;;;5094172;28;20036;-72
2021/11/02 16:40:28;;;;;;;0.00;0.00;;;9.10;99.90;;;;;;5091517;28;20105;-73
2021/11/02 16:43:12;;;;;;;0.00;0.00;;;9.00;99.90;;;;;;5092488;28;20039;-72
2021/11/02 16:45:59;;;;;;;0.40;0.40;;;9.00;99.90;;;;;;5091816;28;20042;-72
2021/11/02 16:48:46;;;;;;;0.00;0.00;;;9.00;99.90;;;;;;5092366;28;20384;-72
2021/11/02 16:51:47;;;;;;;0.20;0.20;;;9.00;99.90;;;;;;5093390;28;20080;-72
2021/11/02 16:54:45;;;;;;;0.00;0.00;;;8.90;99.90;;;;;;5092990;28;20085;-72
2021/11/02 16:57:29;;;;;;;0.00;0.00;;;8.90;99.90;;;;;;5085605;28;20499;-72
2021/11/02 17:00:26;;;;;;;1.05;0.95;;;8.90;99.90;;;;;;5058038;28;20389;-69
2021/11/02 17:03:13;;;;;;;0.00;0.00;;;8.90;99.90;;;;;;5071922;28;20043;-69
2021/11/02 17:06:18;;;;;;;0.10;0.10;;;8.90;99.90;;;;;;5072828;28;20044;-71
2021/11/02 17:09:03;;;;;;;0.43;0.43;;;8.80;99.90;;;;;;5072058;28;20066;-69
2021/11/02 17:11:50;;;;;;;4.70;2.15;;;8.90;99.90;;;;;;5072974;28;20150;-69
2021/11/02 17:14:41;;;;;;;0.95;0.70;;;8.90;99.90;;;;;;5092613;28;20039;-70
2021/11/02 17:17:38;;;;;;;0.10;0.10;;;8.80;99.90;;;;;;5093044;28;20518;-70
2021/11/02 17:20:25;;;;;;;0.10;0.10;;;8.80;99.90;;;;;;5093297;28;20516;-70
2021/11/02 17:23:12;;;;;;;0.20;0.20;;;8.70;99.90;;;;;;5091512;28;20558;-70
2021/11/02 17:25:57;;;;;;;1.70;1.00;;;8.80;99.90;;;;;;5091402;28;20047;-70
2021/11/02 17:28:47;;;;;;;0.13;0.13;;;8.70;99.90;;;;;;5080286;28;20052;-70
2021/11/02 17:31:38;;;;;;;0.03;0.03;;;8.70;99.90;;;;;;5069769;28;20071;-69
2021/11/02 17:34:23;;;;;;;0.30;0.30;;;8.70;99.90;;;;;;5074302;28;20102;-70
2021/11/02 17:37:09;;;;;;;0.05;0.05;;;8.70;99.90;;;;;;5078158;28;20055;-70
2021/11/02 17:39:57;;;;;;;0.10;0.10;;;8.70;99.90;;;;;;5091815;28;20051;-69
2021/11/02 17:42:45;;;;;;;0.00;0.00;;;8.70;99.90;;;;;;5087606;28;20130;-70
2021/11/02 17:45:30;;;;;;;0.20;0.20;;;8.60;99.90;;;;;;5071312;28;20097;-70
2021/11/02 17:48:16;;;;;;;0.00;0.00;;;8.60;99.90;;;;;;5078194;28;20031;-70
2021/11/02 17:51:01;;;;;;;0.00;0.00;;;8.60;99.90;;;;;;5071375;28;20087;-71
2021/11/02 17:53:45;;;;;;;0.00;0.00;;;8.60;99.90;;;;;;5071370;28;20467;-70
2021/11/02 17:56:30;;;;;;;0.08;0.08;;;8.60;99.90;;;;;;5072102;28;20047;-69
2021/11/02 17:59:15;;;;;;;0.10;0.10;;;8.70;99.90;;;;;;5072287;28;20044;-70
2021/11/02 18:02:04;;;;;;;0.20;0.20;;;8.70;99.90;;;;;;5072318;28;20102;-70
2021/11/02 18:04:50;;;;;;;0.10;0.10;;;8.70;99.90;;;;;;5071251;28;20043;-70
2021/11/02 18:07:35;;;;;;;0.00;0.00;;;8.60;99.90;;;;;;5072469;28;20048;-70
2021/11/02 18:10:20;;;;;;;0.10;0.10;;;8.70;99.90;;;;;;5085528;28;20055;-70
2021/11/02 18:13:06;;;;;;;0.00;0.00;;;8.70;99.90;;;;;;5078330;28;20495;-69
2021/11/02 18:15:52;;;;;;;0.70;0.70;;;8.70;99.90;;;;;;5090901;28;20044;-69
2021/11/02 18:18:39;;;;;;;4.97;1.10;;;8.70;99.90;;;;;;5091027;28;20092;-69
2021/11/02 18:21:28;;;;;;;0.00;0.00;;;8.80;99.90;;;;;;5091512;28;20093;-69
2021/11/02 18:24:13;;;;;;;0.00;0.00;;;8.70;99.90;;;;;;5091019;28;20069;-69
2021/11/02 18:26:57;;;;;;;0.47;0.47;;;8.80;99.90;;;;;;5091201;28;20094;-69
2021/11/02 18:29:42;;;;;;;0.00;0.00;;;8.80;99.90;;;;;;5091155;28;20511;-69
2021/11/02 18:32:27;;;;;;;0.52;0.52;;;8.80;99.90;;;;;;5091253;28;20501;-69
2021/11/02 18:35:13;;;;;;;0.00;0.00;;;8.80;99.90;;;;;;5091188;28;20397;-69
2021/11/02 18:38:00;;;;;;;0.00;0.00;;;8.80;99.90;;;;;;5091394;28;20058;-69
2021/11/02 18:40:45;;;;;;;0.10;0.10;;;8.80;99.90;;;;;;5092053;28;20089;-70
2021/11/02 18:43:35;;;;;;;0.10;0.10;;;8.80;99.90;;;;;;5082321;28;20043;-70
2021/11/02 18:46:19;;;;;;;0.00;0.00;;;8.70;99.90;;;;;;5089985;28;20043;-70
2021/11/02 18:49:05;;;;;;;0.25;0.20;;;8.70;99.90;;;;;;5071909;28;20142;-70
2021/11/02 18:51:50;;;;;;;0.10;0.10;;;8.70;99.90;;;;;;5077341;28;20052;-69
2021/11/02 18:54:35;;;;;;;0.25;0.25;;;8.70;99.90;;;;;;5090171;28;20102;-69
2021/11/02 18:57:20;;;;;;;0.00;0.00;;;8.60;99.90;;;;;;5091976;28;20109;-69
2021/11/02 19:00:08;;;;;;;0.00;0.00;;;8.50;99.90;;;;;;5089741;28;20097;-74
2021/11/02 19:02:53;;;;;;;0.00;0.00;;;8.50;99.90;;;;;;5086390;28;20412;-65
2021/11/02 19:05:41;;;;;;;0.00;0.00;;;8.50;99.90;;;;;;5075356;28;20059;-69
2021/11/02 19:08:25;;;;;;;0.35;0.35;;;8.40;99.90;;;;;;5081194;28;20043;-66
2021/11/02 19:11:10;;;;;;;0.80;0.80;;;8.30;99.90;;;;;;5087361;28;20124;-67
2021/11/02 19:13:55;;;;;;;0.20;0.20;;;8.20;99.90;;;;;;5088182;28;20396;-68
2021/11/02 19:16:41;;;;;;;0.00;0.00;;;8.10;99.90;;;;;;5081416;28;20440;-69
2021/11/02 19:19:25;;;;;;;0.20;0.20;;;8.10;99.90;;;;;;5080563;28;20058;-71
2021/11/02 19:22:10;;;;;;;1.33;0.50;;;8.00;99.90;;;;;;5093261;28;20109;-69
2021/11/02 19:24:55;;;;;;;0.00;0.00;;;7.90;99.90;;;;;;5086259;28;20505;-70
2021/11/02 19:27:40;;;;;;;0.10;0.10;;;7.80;99.90;;;;;;5083185;28;20094;-69
2021/11/02 19:30:24;;;;;;;0.00;0.00;;;7.70;99.90;;;;;;5075931;28;20043;-69
2021/11/02 19:33:11;;;;;;;0.00;0.00;;;7.60;99.90;;;;;;5073601;28;20124;-70
2021/11/02 19:35:55;;;;;;;0.65;0.38;;;7.50;99.90;;;;;;5073635;28;20051;-69
2021/11/02 19:38:40;;;;;;;0.20;0.20;;;7.50;99.90;;;;;;5074308;28;20492;-70
2021/11/02 19:41:24;;;;;;;0.15;0.15;;;7.40;99.90;;;;;;5073667;28;20479;-70
2021/11/02 19:44:09;;;;;;;0.00;0.00;;;7.40;99.90;;;;;;5074393;28;20039;-70